sensor_id;sensor_type;location;lat;lon;timestamp;temperature;humidity
22908;DHT22;11620;50.050;8.690;2022-10-16T00:00:10;16.60;99.90
22908;DHT22;11620;50.050;8.690;2022-10-16T00:02:57;16.60;99.90
22908;DHT22;11620;50.050;8.690;2022-10-16T00:05:44;16.60;99.90
22908;DHT22;11620;50.050;8.690;2022-10-16T00:08:30;16.70;99.90
22908;DHT22;11620;50.050;8.690;2022-10-16T00:11:25;16.70;99.90
22908;DHT22;11620;50.050;8.690;2022-10-16T00:14:14;16.80;99.90
22908;DHT22;11620;50.050;8.690;2022-10-16T00:17:00;16.60;99.90
22908;DHT22;11620;50.050;8.690;2022-10-16T00:19:47;16.70;99.90
22908;DHT22;11620;50.050;8.690;2022-10-16T00:22:33;16.70;99.90
22908;DHT22;11620;50.050;8.690;2022-10-16T00:25:19;16.70;99.90
22908;DHT22;11620;50.050;8.690;2022-10-16T00:28:06;16.70;99.90
22908;DHT22;11620;50.050;8.690;2022-10-16T00:30:53;16.60;99.90
22908;DHT22;11620;50.050;8.690;2022-10-16T00:33:40;16.60;99.90
22908;DHT22;11620;50.050;8.690;2022-10-16T00:36:27;16.60;99.90
22908;DHT22;11620;50.050;8.690;2022-10-16T00:39:13;16.50;99.90
22908;DHT22;11620;50.050;8.690;2022-10-16T00:41:59;16.60;99.90
22908;DHT22;11620;50.050;8.690;2022-10-16T00:44:54;16.50;99.90
22908;DHT22;11620;50.050;8.690;2022-10-16T00:47:45;16.50;99.90
22908;DHT22;11620;50.050;8.690;2022-10-16T00:50:35;16.50;99.90
22908;DHT22;11620;50.050;8.690;2022-10-16T00:53:21;16.60;99.90
22908;DHT22;11620;50.050;8.690;2022-10-16T00:56:08;16.60;99.90
22908;DHT22;11620;50.050;8.690;2022-10-16T00:58:54;16.50;99.90
22908;DHT22;11620;50.050;8.690;2022-10-16T01:01:40;16.50;99.90
22908;DHT22;11620;50.050;8.690;2022-10-16T01:04:31;16.60;99.90
22908;DHT22;11620;50.050;8.690;2022-10-16T01:10:51;16.60;99.90
22908;DHT22;11620;50.050;8.690;2022-10-16T01:13:45;16.60;99.90
22908;DHT22;11620;50.050;8.690;2022-10-16T01:16:49;16.60;99.90
22908;DHT22;11620;50.050;8.690;2022-10-16T01:23:18;16.70;99.90
22908;DHT22;11620;50.050;8.690;2022-10-16T01:26:16;16.70;99.90
22908;DHT22;11620;50.050;8.690;2022-10-16T01:29:32;16.60;99.90
22908;DHT22;11620;50.050;8.690;2022-10-16T01:32:38;16.50;99.90
22908;DHT22;11620;50.050;8.690;2022-10-16T01:35:36;16.60;99.90
22908;DHT22;11620;50.050;8.690;2022-10-16T01:38:37;16.60;99.90
22908;DHT22;11620;50.050;8.690;2022-10-16T01:41:38;16.50;99.90
22908;DHT22;11620;50.050;8.690;2022-10-16T01:44:29;16.60;99.90
22908;DHT22;11620;50.050;8.690;2022-10-16T01:47:17;16.60;99.90
22908;DHT22;11620;50.050;8.690;2022-10-16T01:50:07;16.50;99.90
22908;DHT22;11620;50.050;8.690;2022-10-16T01:52:56;16.40;99.90
22908;DHT22;11620;50.050;8.690;2022-10-16T01:55:46;16.40;99.90
22908;DHT22;11620;50.050;8.690;2022-10-16T01:58:35;16.40;99.90
22908;DHT22;11620;50.050;8.690;2022-10-16T02:01:26;16.40;99.90
22908;DHT22;11620;50.050;8.690;2022-10-16T02:04:23;16.40;99.90
22908;DHT22;11620;50.050;8.690;2022-10-16T02:07:10;16.30;99.90
22908;DHT22;11620;50.050;8.690;2022-10-16T02:09:57;16.30;99.90
22908;DHT22;11620;50.050;8.690;2022-10-16T02:12:49;16.30;99.90
22908;DHT22;11620;50.050;8.690;2022-10-16T02:15:36;16.20;99.90
22908;DHT22;11620;50.050;8.690;2022-10-16T02:18:23;16.20;99.90
22908;DHT22;11620;50.050;8.690;2022-10-16T02:24:39;16.10;99.90
22908;DHT22;11620;50.050;8.690;2022-10-16T02:27:42;16.30;99.90
22908;DHT22;11620;50.050;8.690;2022-10-16T02:30:41;16.40;99.90
22908;DHT22;11620;50.050;8.690;2022-10-16T02:33:30;16.40;99.90
22908;DHT22;11620;50.050;8.690;2022-10-16T02:36:17;16.40;99.90
22908;DHT22;11620;50.050;8.690;2022-10-16T02:39:04;16.40;99.90
22908;DHT22;11620;50.050;8.690;2022-10-16T02:41:51;16.30;99.90
22908;DHT22;11620;50.050;8.690;2022-10-16T02:44:37;16.40;99.90
22908;DHT22;11620;50.050;8.690;2022-10-16T02:47:23;16.40;99.90
22908;DHT22;11620;50.050;8.690;2022-10-16T02:50:10;16.40;99.90
22908;DHT22;11620;50.050;8.690;2022-10-16T02:52:56;16.50;99.90
22908;DHT22;11620;50.050;8.690;2022-10-16T02:55:43;16.50;99.90
22908;DHT22;11620;50.050;8.690;2022-10-16T02:58:29;16.50;99.90
22908;DHT22;11620;50.050;8.690;2022-10-16T03:01:15;16.60;99.90
22908;DHT22;11620;50.050;8.690;2022-10-16T03:04:02;16.70;99.90
22908;DHT22;11620;50.050;8.690;2022-10-16T03:06:49;16.60;99.90
22908;DHT22;11620;50.050;8.690;2022-10-16T03:09:35;16.50;99.90
22908;DHT22;11620;50.050;8.690;2022-10-16T03:12:22;16.50;99.90
22908;DHT22;11620;50.050;8.690;2022-10-16T03:15:08;16.50;99.90
22908;DHT22;11620;50.050;8.690;2022-10-16T03:17:57;16.50;99.90
22908;DHT22;11620;50.050;8.690;2022-10-16T03:20:44;16.50;99.90
22908;DHT22;11620;50.050;8.690;2022-10-16T03:23:30;16.50;99.90
22908;DHT22;11620;50.050;8.690;2022-10-16T03:26:17;16.70;99.90
22908;DHT22;11620;50.050;8.690;2022-10-16T03:29:03;16.60;99.90
22908;DHT22;11620;50.050;8.690;2022-10-16T03:31:50;16.50;99.90
22908;DHT22;11620;50.050;8.690;2022-10-16T03:34:36;16.60;99.90
22908;DHT22;11620;50.050;8.690;2022-10-16T03:37:22;16.70;99.90
22908;DHT22;11620;50.050;8.690;2022-10-16T03:40:09;16.60;99.90
22908;DHT22;11620;50.050;8.690;2022-10-16T03:42:55;16.50;99.90
22908;DHT22;11620;50.050;8.690;2022-10-16T03:45:43;16.50;99.90
22908;DHT22;11620;50.050;8.690;2022-10-16T03:48:29;16.50;99.90
22908;DHT22;11620;50.050;8.690;2022-10-16T03:51:16;16.60;99.90
22908;DHT22;11620;50.050;8.690;2022-10-16T03:54:02;16.40;99.90
22908;DHT22;11620;50.050;8.690;2022-10-16T03:56:49;16.50;99.90
22908;DHT22;11620;50.050;8.690;2022-10-16T03:59:35;16.50;99.90
22908;DHT22;11620;50.050;8.690;2022-10-16T04:02:21;16.70;99.90
22908;DHT22;11620;50.050;8.690;2022-10-16T04:05:08;16.90;99.90
22908;DHT22;11620;50.050;8.690;2022-10-16T04:08:03;16.80;99.90
22908;DHT22;11620;50.050;8.690;2022-10-16T04:10:49;16.70;99.90
22908;DHT22;11620;50.050;8.690;2022-10-16T04:13:36;16.70;99.90
22908;DHT22;11620;50.050;8.690;2022-10-16T04:16:23;16.80;99.90
22908;DHT22;11620;50.050;8.690;2022-10-16T04:19:10;16.80;99.90
22908;DHT22;11620;50.050;8.690;2022-10-16T04:21:56;16.80;99.90
22908;DHT22;11620;50.050;8.690;2022-10-16T04:24:42;16.70;99.90
22908;DHT22;11620;50.050;8.690;2022-10-16T04:31:29;16.80;99.90
22908;DHT22;11620;50.050;8.690;2022-10-16T04:34:15;16.80;99.90
22908;DHT22;11620;50.050;8.690;2022-10-16T04:37:05;16.80;99.90
22908;DHT22;11620;50.050;8.690;2022-10-16T04:39:54;16.70;99.90
22908;DHT22;11620;50.050;8.690;2022-10-16T04:43:15;16.70;99.90
22908;DHT22;11620;50.050;8.690;2022-10-16T04:46:02;16.80;99.90
22908;DHT22;11620;50.050;8.690;2022-10-16T04:48:56;17.00;99.90
22908;DHT22;11620;50.050;8.690;2022-10-16T04:51:45;16.90;99.90
22908;DHT22;11620;50.050;8.690;2022-10-16T04:58:13;17.00;99.90
22908;DHT22;11620;50.050;8.690;2022-10-16T05:00:59;17.10;99.90
22908;DHT22;11620;50.050;8.690;2022-10-16T05:03:46;17.10;99.90
22908;DHT22;11620;50.050;8.690;2022-10-16T05:06:32;17.00;99.90
22908;DHT22;11620;50.050;8.690;2022-10-16T05:09:19;17.10;99.90
22908;DHT22;11620;50.050;8.690;2022-10-16T05:12:05;17.00;99.90
22908;DHT22;11620;50.050;8.690;2022-10-16T05:14:51;17.10;99.90
22908;DHT22;11620;50.050;8.690;2022-10-16T05:17:43;17.20;99.90
22908;DHT22;11620;50.050;8.690;2022-10-16T05:20:30;17.20;99.90
22908;DHT22;11620;50.050;8.690;2022-10-16T05:23:16;17.30;99.90
22908;DHT22;11620;50.050;8.690;2022-10-16T05:26:03;17.30;99.90
22908;DHT22;11620;50.050;8.690;2022-10-16T05:28:49;17.20;99.90
22908;DHT22;11620;50.050;8.690;2022-10-16T05:31:36;17.10;99.90
22908;DHT22;11620;50.050;8.690;2022-10-16T05:34:22;17.20;99.90
22908;DHT22;11620;50.050;8.690;2022-10-16T05:37:09;17.10;99.90
22908;DHT22;11620;50.050;8.690;2022-10-16T05:39:55;17.20;99.90
22908;DHT22;11620;50.050;8.690;2022-10-16T05:42:41;17.20;99.90
22908;DHT22;11620;50.050;8.690;2022-10-16T05:45:28;17.30;99.90
22908;DHT22;11620;50.050;8.690;2022-10-16T05:48:14;17.30;99.90
22908;DHT22;11620;50.050;8.690;2022-10-16T05:51:03;17.30;99.90
22908;DHT22;11620;50.050;8.690;2022-10-16T05:53:50;17.30;99.90
22908;DHT22;11620;50.050;8.690;2022-10-16T05:56:37;17.20;99.90
22908;DHT22;11620;50.050;8.690;2022-10-16T05:59:24;17.20;99.90
22908;DHT22;11620;50.050;8.690;2022-10-16T06:02:13;17.20;99.90
22908;DHT22;11620;50.050;8.690;2022-10-16T06:05:00;17.10;99.90
22908;DHT22;11620;50.050;8.690;2022-10-16T06:07:46;17.20;99.90
22908;DHT22;11620;50.050;8.690;2022-10-16T06:10:32;17.10;99.90
22908;DHT22;11620;50.050;8.690;2022-10-16T06:13:19;16.90;99.90
22908;DHT22;11620;50.050;8.690;2022-10-16T06:16:05;17.10;99.90
22908;DHT22;11620;50.050;8.690;2022-10-16T06:18:53;17.00;99.90
22908;DHT22;11620;50.050;8.690;2022-10-16T06:21:40;17.10;99.90
22908;DHT22;11620;50.050;8.690;2022-10-16T06:24:26;17.20;99.90
22908;DHT22;11620;50.050;8.690;2022-10-16T06:27:13;17.20;99.90
22908;DHT22;11620;50.050;8.690;2022-10-16T06:29:59;17.20;99.90
22908;DHT22;11620;50.050;8.690;2022-10-16T06:32:45;17.20;99.90
22908;DHT22;11620;50.050;8.690;2022-10-16T06:35:32;17.30;99.90
22908;DHT22;11620;50.050;8.690;2022-10-16T06:38:18;17.30;99.90
22908;DHT22;11620;50.050;8.690;2022-10-16T06:41:06;17.20;99.90
22908;DHT22;11620;50.050;8.690;2022-10-16T06:43:53;17.10;99.90
22908;DHT22;11620;50.050;8.690;2022-10-16T06:46:39;17.10;99.90
22908;DHT22;11620;50.050;8.690;2022-10-16T06:49:25;17.10;99.90
22908;DHT22;11620;50.050;8.690;2022-10-16T06:52:12;17.30;99.90
22908;DHT22;11620;50.050;8.690;2022-10-16T06:54:58;17.30;99.90
22908;DHT22;11620;50.050;8.690;2022-10-16T06:57:47;17.30;99.90
22908;DHT22;11620;50.050;8.690;2022-10-16T07:00:33;17.30;99.90
22908;DHT22;11620;50.050;8.690;2022-10-16T07:03:20;17.30;99.90
22908;DHT22;11620;50.050;8.690;2022-10-16T07:06:07;17.40;99.90
22908;DHT22;11620;50.050;8.690;2022-10-16T07:08:54;17.40;99.90
22908;DHT22;11620;50.050;8.690;2022-10-16T07:11:40;17.40;99.90
22908;DHT22;11620;50.050;8.690;2022-10-16T07:14:27;17.30;99.90
22908;DHT22;11620;50.050;8.690;2022-10-16T07:17:13;17.30;99.90
22908;DHT22;11620;50.050;8.690;2022-10-16T07:20:00;17.30;99.90
22908;DHT22;11620;50.050;8.690;2022-10-16T07:22:46;17.40;99.90
22908;DHT22;11620;50.050;8.690;2022-10-16T07:25:32;17.30;99.90
22908;DHT22;11620;50.050;8.690;2022-10-16T07:28:19;17.40;99.90
22908;DHT22;11620;50.050;8.690;2022-10-16T07:31:08;17.50;99.90
22908;DHT22;11620;50.050;8.690;2022-10-16T07:33:58;17.60;99.90
22908;DHT22;11620;50.050;8.690;2022-10-16T07:36:48;17.50;99.90
22908;DHT22;11620;50.050;8.690;2022-10-16T07:39:34;17.30;99.90
22908;DHT22;11620;50.050;8.690;2022-10-16T07:42:20;17.40;99.90
22908;DHT22;11620;50.050;8.690;2022-10-16T07:45:07;17.50;99.90
22908;DHT22;11620;50.050;8.690;2022-10-16T07:47:53;17.40;99.90
22908;DHT22;11620;50.050;8.690;2022-10-16T07:50:40;17.30;99.90
22908;DHT22;11620;50.050;8.690;2022-10-16T07:53:27;17.30;99.90
22908;DHT22;11620;50.050;8.690;2022-10-16T07:56:14;17.30;99.90
22908;DHT22;11620;50.050;8.690;2022-10-16T07:59:01;17.40;99.90
22908;DHT22;11620;50.050;8.690;2022-10-16T08:01:49;17.40;99.90
22908;DHT22;11620;50.050;8.690;2022-10-16T08:04:36;17.60;99.90
22908;DHT22;11620;50.050;8.690;2022-10-16T08:07:22;17.70;99.90
22908;DHT22;11620;50.050;8.690;2022-10-16T08:10:17;17.70;99.90
22908;DHT22;11620;50.050;8.690;2022-10-16T08:13:03;17.80;99.90
22908;DHT22;11620;50.050;8.690;2022-10-16T08:15:50;17.80;99.90
22908;DHT22;11620;50.050;8.690;2022-10-16T08:18:40;17.90;99.90
22908;DHT22;11620;50.050;8.690;2022-10-16T08:21:27;17.70;99.90
22908;DHT22;11620;50.050;8.690;2022-10-16T08:24:13;17.70;99.90
22908;DHT22;11620;50.050;8.690;2022-10-16T08:26:59;17.80;99.90
22908;DHT22;11620;50.050;8.690;2022-10-16T08:29:46;18.00;99.90
22908;DHT22;11620;50.050;8.690;2022-10-16T08:32:34;18.10;99.90
22908;DHT22;11620;50.050;8.690;2022-10-16T08:35:20;18.20;99.90
22908;DHT22;11620;50.050;8.690;2022-10-16T08:38:07;18.20;99.90
22908;DHT22;11620;50.050;8.690;2022-10-16T08:47:26;18.20;99.90
22908;DHT22;11620;50.050;8.690;2022-10-16T08:50:28;18.20;99.90
22908;DHT22;11620;50.050;8.690;2022-10-16T08:53:20;18.10;99.90
22908;DHT22;11620;50.050;8.690;2022-10-16T08:56:09;18.10;99.90
22908;DHT22;11620;50.050;8.690;2022-10-16T08:58:58;18.20;99.90
22908;DHT22;11620;50.050;8.690;2022-10-16T09:01:47;18.20;99.90
22908;DHT22;11620;50.050;8.690;2022-10-16T09:23:22;18.00;99.90
22908;DHT22;11620;50.050;8.690;2022-10-16T09:26:13;18.00;99.90
22908;DHT22;11620;50.050;8.690;2022-10-16T09:29:00;18.00;99.90
22908;DHT22;11620;50.050;8.690;2022-10-16T09:31:46;18.10;99.90
22908;DHT22;11620;50.050;8.690;2022-10-16T09:34:37;18.10;99.90
22908;DHT22;11620;50.050;8.690;2022-10-16T09:37:25;18.10;99.90
22908;DHT22;11620;50.050;8.690;2022-10-16T09:40:13;18.10;99.90
22908;DHT22;11620;50.050;8.690;2022-10-16T09:43:28;18.10;99.90
22908;DHT22;11620;50.050;8.690;2022-10-16T09:46:29;18.00;99.90
22908;DHT22;11620;50.050;8.690;2022-10-16T09:49:26;17.80;99.90
22908;DHT22;11620;50.050;8.690;2022-10-16T09:52:14;17.80;99.90
22908;DHT22;11620;50.050;8.690;2022-10-16T09:55:13;17.90;99.90
22908;DHT22;11620;50.050;8.690;2022-10-16T09:57:59;18.10;99.90
22908;DHT22;11620;50.050;8.690;2022-10-16T10:00:52;18.10;99.90
22908;DHT22;11620;50.050;8.690;2022-10-16T10:03:41;18.20;99.90
22908;DHT22;11620;50.050;8.690;2022-10-16T10:06:34;18.30;99.90
22908;DHT22;11620;50.050;8.690;2022-10-16T10:09:26;18.30;99.90
22908;DHT22;11620;50.050;8.690;2022-10-16T10:12:27;18.40;99.90
22908;DHT22;11620;50.050;8.690;2022-10-16T10:15:15;18.50;99.90
22908;DHT22;11620;50.050;8.690;2022-10-16T10:18:19;18.60;99.90
22908;DHT22;11620;50.050;8.690;2022-10-16T10:21:14;18.70;99.90
22908;DHT22;11620;50.050;8.690;2022-10-16T10:24:01;18.60;99.90
22908;DHT22;11620;50.050;8.690;2022-10-16T10:26:58;18.70;99.90
22908;DHT22;11620;50.050;8.690;2022-10-16T10:30:25;18.70;99.90
22908;DHT22;11620;50.050;8.690;2022-10-16T10:33:43;18.60;99.90
22908;DHT22;11620;50.050;8.690;2022-10-16T10:42:39;18.60;99.90
22908;DHT22;11620;50.050;8.690;2022-10-16T10:45:48;18.60;99.90
22908;DHT22;11620;50.050;8.690;2022-10-16T10:48:54;18.80;99.90
22908;DHT22;11620;50.050;8.690;2022-10-16T10:52:02;18.90;99.90
22908;DHT22;11620;50.050;8.690;2022-10-16T10:55:01;18.90;99.90
22908;DHT22;11620;50.050;8.690;2022-10-16T11:00:57;19.00;99.90
22908;DHT22;11620;50.050;8.690;2022-10-16T11:04:11;19.10;99.90
22908;DHT22;11620;50.050;8.690;2022-10-16T11:07:12;19.30;99.90
22908;DHT22;11620;50.050;8.690;2022-10-16T11:10:27;19.60;99.90
22908;DHT22;11620;50.050;8.690;2022-10-16T11:16:21;20.20;99.90
22908;DHT22;11620;50.050;8.690;2022-10-16T11:25:28;20.20;99.90
22908;DHT22;11620;50.050;8.690;2022-10-16T11:31:24;20.00;99.90
22908;DHT22;11620;50.050;8.690;2022-10-16T11:37:37;19.80;99.90
22908;DHT22;11620;50.050;8.690;2022-10-16T11:40:31;20.00;99.90
22908;DHT22;11620;50.050;8.690;2022-10-16T11:46:20;20.10;99.90
22908;DHT22;11620;50.050;8.690;2022-10-16T11:49:14;20.10;99.90
22908;DHT22;11620;50.050;8.690;2022-10-16T11:55:01;19.80;99.90
22908;DHT22;11620;50.050;8.690;2022-10-16T11:57:53;19.70;99.90
22908;DHT22;11620;50.050;8.690;2022-10-16T12:00:46;19.60;99.90
22908;DHT22;11620;50.050;8.690;2022-10-16T12:09:32;19.80;99.90
22908;DHT22;11620;50.050;8.690;2022-10-16T12:15:22;21.00;99.90
22908;DHT22;11620;50.050;8.690;2022-10-16T12:18:21;21.80;99.90
22908;DHT22;11620;50.050;8.690;2022-10-16T12:21:08;22.20;99.90
22908;DHT22;11620;50.050;8.690;2022-10-16T12:24:02;22.50;99.90
22908;DHT22;11620;50.050;8.690;2022-10-16T12:26:51;22.50;99.90
22908;DHT22;11620;50.050;8.690;2022-10-16T12:29:48;22.90;99.90
22908;DHT22;11620;50.050;8.690;2022-10-16T12:32:40;22.90;99.90
22908;DHT22;11620;50.050;8.690;2022-10-16T12:35:33;23.10;99.90
22908;DHT22;11620;50.050;8.690;2022-10-16T12:38:47;23.20;99.90
22908;DHT22;11620;50.050;8.690;2022-10-16T12:41:35;23.20;99.90
22908;DHT22;11620;50.050;8.690;2022-10-16T12:44:24;23.40;99.90
22908;DHT22;11620;50.050;8.690;2022-10-16T12:47:22;23.60;99.90
22908;DHT22;11620;50.050;8.690;2022-10-16T12:50:25;23.50;99.90
22908;DHT22;11620;50.050;8.690;2022-10-16T12:53:24;23.40;99.90
22908;DHT22;11620;50.050;8.690;2022-10-16T12:56:19;23.50;99.90
22908;DHT22;11620;50.050;8.690;2022-10-16T12:59:20;23.90;99.90
22908;DHT22;11620;50.050;8.690;2022-10-16T13:05:26;23.60;99.90
22908;DHT22;11620;50.050;8.690;2022-10-16T13:17:58;22.40;99.90
22908;DHT22;11620;50.050;8.690;2022-10-16T13:21:12;22.40;99.90
22908;DHT22;11620;50.050;8.690;2022-10-16T13:30:29;21.90;99.90
22908;DHT22;11620;50.050;8.690;2022-10-16T13:33:17;21.80;99.90
22908;DHT22;11620;50.050;8.690;2022-10-16T13:36:06;21.70;99.90
22908;DHT22;11620;50.050;8.690;2022-10-16T13:39:25;21.80;99.90
22908;DHT22;11620;50.050;8.690;2022-10-16T13:42:26;21.60;99.90
22908;DHT22;11620;50.050;8.690;2022-10-16T13:45:19;21.80;99.90
22908;DHT22;11620;50.050;8.690;2022-10-16T13:48:09;21.60;99.90
22908;DHT22;11620;50.050;8.690;2022-10-16T13:50:59;21.80;99.90
22908;DHT22;11620;50.050;8.690;2022-10-16T13:53:46;21.90;99.90
22908;DHT22;11620;50.050;8.690;2022-10-16T13:56:32;22.00;99.90
22908;DHT22;11620;50.050;8.690;2022-10-16T13:59:27;22.10;99.90
22908;DHT22;11620;50.050;8.690;2022-10-16T14:05:14;22.10;99.90
22908;DHT22;11620;50.050;8.690;2022-10-16T14:08:06;22.00;99.90
22908;DHT22;11620;50.050;8.690;2022-10-16T14:10:55;22.00;99.90
22908;DHT22;11620;50.050;8.690;2022-10-16T14:13:54;21.90;99.90
22908;DHT22;11620;50.050;8.690;2022-10-16T14:16:48;21.80;99.90
22908;DHT22;11620;50.050;8.690;2022-10-16T14:19:35;21.60;99.90
22908;DHT22;11620;50.050;8.690;2022-10-16T14:22:39;21.50;99.90
22908;DHT22;11620;50.050;8.690;2022-10-16T14:25:53;21.50;99.90
22908;DHT22;11620;50.050;8.690;2022-10-16T14:29:09;21.60;99.90
22908;DHT22;11620;50.050;8.690;2022-10-16T14:36:11;21.60;99.90
22908;DHT22;11620;50.050;8.690;2022-10-16T14:39:06;21.80;99.90
22908;DHT22;11620;50.050;8.690;2022-10-16T14:42:00;21.80;99.90
22908;DHT22;11620;50.050;8.690;2022-10-16T14:48:49;21.80;99.90
22908;DHT22;11620;50.050;8.690;2022-10-16T14:51:41;21.80;99.90
22908;DHT22;11620;50.050;8.690;2022-10-16T14:54:31;21.80;99.90
22908;DHT22;11620;50.050;8.690;2022-10-16T14:57:23;21.80;99.90
22908;DHT22;11620;50.050;8.690;2022-10-16T15:00:15;21.80;99.90
22908;DHT22;11620;50.050;8.690;2022-10-16T15:03:01;21.80;99.90
22908;DHT22;11620;50.050;8.690;2022-10-16T15:05:48;21.70;99.90
22908;DHT22;11620;50.050;8.690;2022-10-16T15:08:34;21.70;99.90
22908;DHT22;11620;50.050;8.690;2022-10-16T15:11:20;21.80;99.90
22908;DHT22;11620;50.050;8.690;2022-10-16T15:14:13;21.70;99.90
22908;DHT22;11620;50.050;8.690;2022-10-16T15:16:59;21.70;99.90
22908;DHT22;11620;50.050;8.690;2022-10-16T15:19:46;21.80;99.90
22908;DHT22;11620;50.050;8.690;2022-10-16T15:22:32;21.80;99.90
22908;DHT22;11620;50.050;8.690;2022-10-16T15:25:44;21.80;99.90
22908;DHT22;11620;50.050;8.690;2022-10-16T15:28:31;21.80;99.90
22908;DHT22;11620;50.050;8.690;2022-10-16T15:31:18;21.80;99.90
22908;DHT22;11620;50.050;8.690;2022-10-16T15:34:04;21.80;99.90
22908;DHT22;11620;50.050;8.690;2022-10-16T15:36:54;21.80;99.90
22908;DHT22;11620;50.050;8.690;2022-10-16T15:39:52;21.80;99.90
22908;DHT22;11620;50.050;8.690;2022-10-16T15:42:44;21.80;99.90
22908;DHT22;11620;50.050;8.690;2022-10-16T15:45:30;21.70;99.90
22908;DHT22;11620;50.050;8.690;2022-10-16T15:48:23;21.70;99.90
22908;DHT22;11620;50.050;8.690;2022-10-16T15:51:09;21.70;99.90
22908;DHT22;11620;50.050;8.690;2022-10-16T15:53:56;21.70;99.90
22908;DHT22;11620;50.050;8.690;2022-10-16T15:56:43;21.70;99.90
22908;DHT22;11620;50.050;8.690;2022-10-16T15:59:31;21.60;99.90
22908;DHT22;11620;50.050;8.690;2022-10-16T16:02:17;21.60;99.90
22908;DHT22;11620;50.050;8.690;2022-10-16T16:05:04;21.60;99.90
22908;DHT22;11620;50.050;8.690;2022-10-16T16:07:52;21.50;99.90
22908;DHT22;11620;50.050;8.690;2022-10-16T16:10:38;21.60;99.90
22908;DHT22;11620;50.050;8.690;2022-10-16T16:13:25;21.50;99.90
22908;DHT22;11620;50.050;8.690;2022-10-16T16:16:14;21.50;99.90
22908;DHT22;11620;50.050;8.690;2022-10-16T16:19:00;21.50;99.90
22908;DHT22;11620;50.050;8.690;2022-10-16T16:21:48;21.50;99.90
22908;DHT22;11620;50.050;8.690;2022-10-16T16:24:35;21.50;99.90
22908;DHT22;11620;50.050;8.690;2022-10-16T16:27:21;21.40;99.90
22908;DHT22;11620;50.050;8.690;2022-10-16T16:30:10;21.40;99.90
22908;DHT22;11620;50.050;8.690;2022-10-16T16:32:57;21.40;99.90
22908;DHT22;11620;50.050;8.690;2022-10-16T16:35:43;21.40;99.90
22908;DHT22;11620;50.050;8.690;2022-10-16T16:38:29;21.40;99.90
22908;DHT22;11620;50.050;8.690;2022-10-16T16:41:20;21.30;99.90
22908;DHT22;11620;50.050;8.690;2022-10-16T16:44:09;21.20;99.90
22908;DHT22;11620;50.050;8.690;2022-10-16T16:46:56;21.20;99.90
22908;DHT22;11620;50.050;8.690;2022-10-16T16:49:42;21.10;99.90
22908;DHT22;11620;50.050;8.690;2022-10-16T16:52:29;21.20;99.90
22908;DHT22;11620;50.050;8.690;2022-10-16T16:55:15;21.20;99.90
22908;DHT22;11620;50.050;8.690;2022-10-16T16:58:01;21.10;99.90
22908;DHT22;11620;50.050;8.690;2022-10-16T17:00:49;21.10;99.90
22908;DHT22;11620;50.050;8.690;2022-10-16T17:03:36;21.00;99.90
22908;DHT22;11620;50.050;8.690;2022-10-16T17:06:26;20.90;99.90
22908;DHT22;11620;50.050;8.690;2022-10-16T17:09:12;20.90;99.90
22908;DHT22;11620;50.050;8.690;2022-10-16T17:12:08;20.80;99.90
22908;DHT22;11620;50.050;8.690;2022-10-16T17:14:59;20.90;99.90
22908;DHT22;11620;50.050;8.690;2022-10-16T17:17:53;20.90;99.90
22908;DHT22;11620;50.050;8.690;2022-10-16T17:20:39;20.90;99.90
22908;DHT22;11620;50.050;8.690;2022-10-16T17:23:26;20.70;99.90
22908;DHT22;11620;50.050;8.690;2022-10-16T17:26:15;20.70;99.90
22908;DHT22;11620;50.050;8.690;2022-10-16T17:29:01;20.60;99.90
22908;DHT22;11620;50.050;8.690;2022-10-16T17:31:48;20.60;99.90
22908;DHT22;11620;50.050;8.690;2022-10-16T17:34:36;20.60;99.90
22908;DHT22;11620;50.050;8.690;2022-10-16T17:37:22;20.60;99.90
22908;DHT22;11620;50.050;8.690;2022-10-16T17:40:09;20.60;99.90
22908;DHT22;11620;50.050;8.690;2022-10-16T17:42:56;20.60;99.90
22908;DHT22;11620;50.050;8.690;2022-10-16T17:45:42;20.50;99.90
22908;DHT22;11620;50.050;8.690;2022-10-16T17:48:28;20.50;99.90
22908;DHT22;11620;50.050;8.690;2022-10-16T17:51:17;20.30;99.90
22908;DHT22;11620;50.050;8.690;2022-10-16T17:54:05;20.30;99.90
22908;DHT22;11620;50.050;8.690;2022-10-16T17:56:52;20.30;99.90
22908;DHT22;11620;50.050;8.690;2022-10-16T17:59:38;20.30;99.90
22908;DHT22;11620;50.050;8.690;2022-10-16T18:02:24;20.40;99.90
22908;DHT22;11620;50.050;8.690;2022-10-16T18:05:11;20.30;99.90
22908;DHT22;11620;50.050;8.690;2022-10-16T18:07:57;20.30;99.90
22908;DHT22;11620;50.050;8.690;2022-10-16T18:10:48;20.10;99.90
22908;DHT22;11620;50.050;8.690;2022-10-16T18:13:34;20.00;99.90
22908;DHT22;11620;50.050;8.690;2022-10-16T18:16:21;20.00;99.90
22908;DHT22;11620;50.050;8.690;2022-10-16T18:19:10;20.00;99.90
22908;DHT22;11620;50.050;8.690;2022-10-16T18:21:56;19.90;99.90
22908;DHT22;11620;50.050;8.690;2022-10-16T18:24:43;19.90;99.90
22908;DHT22;11620;50.050;8.690;2022-10-16T18:27:31;19.80;99.90
22908;DHT22;11620;50.050;8.690;2022-10-16T18:30:17;19.80;99.90
22908;DHT22;11620;50.050;8.690;2022-10-16T18:33:03;19.70;99.90
22908;DHT22;11620;50.050;8.690;2022-10-16T18:35:50;19.60;99.90
22908;DHT22;11620;50.050;8.690;2022-10-16T18:38:36;19.50;99.90
22908;DHT22;11620;50.050;8.690;2022-10-16T18:41:24;19.40;99.90
22908;DHT22;11620;50.050;8.690;2022-10-16T18:44:11;19.40;99.90
22908;DHT22;11620;50.050;8.690;2022-10-16T18:46:58;19.40;99.90
22908;DHT22;11620;50.050;8.690;2022-10-16T18:49:47;19.40;99.90
22908;DHT22;11620;50.050;8.690;2022-10-16T18:52:34;19.40;99.90
22908;DHT22;11620;50.050;8.690;2022-10-16T18:55:20;19.40;99.90
22908;DHT22;11620;50.050;8.690;2022-10-16T18:58:07;19.40;99.90
22908;DHT22;11620;50.050;8.690;2022-10-16T19:00:54;19.30;99.90
22908;DHT22;11620;50.050;8.690;2022-10-16T19:03:40;19.40;99.90
22908;DHT22;11620;50.050;8.690;2022-10-16T19:06:31;19.30;99.90
22908;DHT22;11620;50.050;8.690;2022-10-16T19:09:21;19.30;99.90
22908;DHT22;11620;50.050;8.690;2022-10-16T19:12:08;19.20;99.90
22908;DHT22;11620;50.050;8.690;2022-10-16T19:14:55;19.20;99.90
22908;DHT22;11620;50.050;8.690;2022-10-16T19:17:41;19.10;99.90
22908;DHT22;11620;50.050;8.690;2022-10-16T19:20:27;19.20;99.90
22908;DHT22;11620;50.050;8.690;2022-10-16T19:23:14;19.10;99.90
22908;DHT22;11620;50.050;8.690;2022-10-16T19:26:05;19.10;99.90
22908;DHT22;11620;50.050;8.690;2022-10-16T19:28:54;19.00;99.90
22908;DHT22;11620;50.050;8.690;2022-10-16T19:31:40;19.00;99.90
22908;DHT22;11620;50.050;8.690;2022-10-16T19:34:30;19.00;99.90
22908;DHT22;11620;50.050;8.690;2022-10-16T19:37:16;18.90;99.90
22908;DHT22;11620;50.050;8.690;2022-10-16T19:40:03;18.90;99.90
22908;DHT22;11620;50.050;8.690;2022-10-16T19:42:50;18.90;99.90
22908;DHT22;11620;50.050;8.690;2022-10-16T19:45:36;18.80;99.90